createdAt,value
2024-04-11T00:00:38.177Z,63.36
2024-04-11T00:01:29.337Z,62.95
2024-04-11T00:02:18.558Z,63.57
2024-04-11T00:03:08.480Z,61.86
2024-04-11T00:03:58.501Z,62.54
2024-04-11T00:04:48.493Z,63.44
2024-04-11T00:05:38.570Z,63.40
2024-04-11T00:06:28.606Z,62.73
2024-04-11T00:07:18.649Z,63.10
2024-04-11T00:08:08.683Z,62.71
2024-04-11T00:08:58.885Z,63.11
2024-04-11T00:09:48.813Z,62.88
2024-04-11T00:10:38.859Z,63.26
2024-04-11T00:11:28.977Z,63.57
2024-04-11T00:12:19.041Z,62.66
2024-04-11T00:13:09.032Z,63.37
2024-04-11T00:13:59.075Z,62.75
2024-04-11T00:14:49.189Z,63.48
2024-04-11T00:15:39.144Z,63.67
2024-04-11T00:16:29.481Z,63.52
2024-04-11T00:17:19.299Z,63.63
2024-04-11T00:18:09.377Z,63.72
2024-04-11T00:18:59.416Z,63.55
2024-04-11T00:19:49.445Z,63.68
2024-04-11T00:20:39.516Z,63.13
2024-04-11T00:21:29.614Z,63.52
2024-04-11T00:22:19.647Z,63.44
2024-04-11T00:23:09.732Z,63.78
2024-04-11T00:23:59.926Z,63.88
2024-04-11T00:24:49.813Z,63.71
2024-04-11T00:25:39.843Z,63.90
2024-04-11T00:26:30.207Z,63.60
2024-04-11T00:27:20.142Z,63.73
2024-04-11T00:28:10.181Z,63.77
2024-04-11T00:29:00.292Z,63.64
2024-04-11T00:29:50.346Z,63.16
2024-04-11T00:30:40.385Z,63.47
2024-04-11T00:31:30.458Z,63.55
2024-04-11T00:32:20.601Z,63.65
2024-04-11T00:33:10.683Z,63.66
2024-04-11T00:34:00.962Z,63.08
2024-04-11T00:34:50.699Z,62.87
2024-04-11T00:35:41.022Z,63.55
2024-04-11T00:36:31.046Z,63.52
2024-04-11T00:37:21.091Z,63.75
2024-04-11T00:38:11.164Z,63.82
2024-04-11T00:39:01.453Z,63.63
2024-04-11T00:39:51.256Z,63.46
2024-04-11T00:40:41.302Z,63.71
2024-04-11T00:41:31.438Z,63.76
2024-04-11T00:42:21.417Z,63.93
2024-04-11T00:43:11.446Z,63.85
2024-04-11T00:44:01.488Z,63.67
2024-04-11T00:44:51.581Z,63.84
2024-04-11T00:45:41.556Z,63.97
2024-04-11T00:46:31.612Z,63.84
2024-04-11T00:47:21.857Z,63.71
2024-04-11T00:48:12.167Z,63.66
2024-04-11T00:49:01.951Z,62.85
2024-04-11T00:49:51.923Z,63.39
2024-04-11T00:50:41.952Z,63.77
2024-04-11T00:51:32.019Z,62.84
2024-04-11T00:52:22.036Z,63.60
2024-04-11T00:53:12.074Z,63.70
2024-04-11T00:54:02.359Z,63.71
2024-04-11T00:54:52.216Z,63.62
2024-04-11T00:55:42.246Z,63.71
2024-04-11T00:56:32.348Z,62.88
2024-04-11T00:57:22.352Z,62.51
2024-04-11T00:58:12.728Z,63.02
2024-04-11T00:59:02.720Z,63.49
2024-04-11T00:59:52.800Z,63.73
2024-04-11T01:00:43.015Z,63.51
2024-04-11T01:01:32.932Z,63.05
2024-04-11T01:02:23.020Z,63.47
2024-04-11T01:03:13.175Z,63.53
2024-04-11T01:04:03.318Z,63.39
2024-04-11T01:04:53.498Z,63.44
2024-04-11T01:05:43.522Z,63.65
2024-04-11T01:06:33.471Z,63.57
2024-04-11T01:07:23.525Z,62.68
2024-04-11T01:08:13.535Z,63.48
2024-04-11T01:09:03.656Z,63.60
2024-04-11T01:09:53.717Z,63.66
2024-04-11T01:10:43.769Z,63.62
2024-04-11T01:11:33.836Z,63.33
2024-04-11T01:12:23.840Z,63.11
2024-04-11T01:13:13.874Z,63.36
2024-04-11T01:14:04.227Z,63.10
2024-04-11T01:14:54.307Z,63.27
2024-04-11T01:15:44.369Z,62.88
2024-04-11T01:16:34.684Z,63.37
2024-04-11T01:17:24.891Z,63.41
2024-04-11T01:18:15.085Z,63.35
2024-04-11T01:19:04.919Z,63.58
2024-04-11T01:19:54.893Z,62.71
2024-04-11T01:20:45.067Z,62.92
2024-04-11T01:21:35.030Z,63.30
2024-04-11T01:22:25.084Z,63.42
2024-04-11T01:23:15.167Z,63.06
2024-04-11T01:24:05.301Z,63.35
2024-04-11T01:24:55.224Z,63.30
2024-04-11T01:25:45.305Z,63.00
2024-04-11T01:26:35.415Z,62.88
2024-04-11T01:27:25.427Z,62.43
2024-04-11T01:28:15.437Z,63.03
2024-04-11T01:29:05.516Z,63.02
2024-04-11T01:29:55.554Z,62.74
2024-04-11T01:30:45.625Z,62.39
2024-04-11T01:31:35.727Z,62.86
2024-04-11T01:32:25.808Z,63.28
2024-04-11T01:33:16.137Z,63.12
2024-04-11T01:34:06.057Z,63.45
2024-04-11T01:34:55.947Z,63.37
2024-04-11T01:35:46.025Z,63.54
2024-04-11T01:36:36.063Z,62.17
2024-04-11T01:37:26.128Z,61.97
2024-04-11T01:38:16.170Z,63.17
2024-04-11T01:39:06.367Z,63.45
2024-04-11T01:39:56.238Z,63.39
2024-04-11T01:40:46.281Z,62.58
2024-04-11T01:41:36.411Z,63.24
2024-04-11T01:42:26.404Z,62.26
2024-04-11T01:43:16.606Z,62.44
2024-04-11T01:44:06.660Z,62.39
2024-04-11T01:44:56.750Z,61.94
2024-04-11T01:45:46.773Z,61.78
2024-04-11T01:46:36.862Z,62.79
2024-04-11T01:47:26.924Z,61.71
2024-04-11T01:48:17.075Z,62.99
2024-04-11T01:49:06.944Z,63.06
2024-04-11T01:49:57.020Z,63.48
2024-04-11T01:50:47.093Z,62.02
2024-04-11T01:51:37.135Z,62.71
2024-04-11T01:52:27.166Z,62.49
2024-04-11T01:53:17.196Z,61.94
2024-04-11T01:54:07.325Z,62.84
2024-04-11T01:54:57.338Z,62.89
2024-04-11T01:55:47.393Z,62.05
2024-04-11T01:56:37.462Z,63.02
2024-04-11T01:57:27.487Z,62.04
2024-04-11T01:58:17.559Z,62.43
2024-04-11T01:59:07.845Z,62.46
2024-04-11T01:59:58.084Z,63.10
2024-04-11T02:00:47.971Z,62.52
2024-04-11T02:01:38.017Z,61.54
2024-04-11T02:02:28.127Z,62.91
2024-04-11T02:03:18.242Z,61.83
2024-04-11T02:04:08.218Z,62.79
2024-04-11T02:04:58.248Z,63.26
2024-04-11T02:05:48.308Z,62.20
2024-04-11T02:06:38.371Z,62.73
2024-04-11T02:07:28.382Z,61.87
2024-04-11T02:08:18.429Z,62.57
2024-04-11T02:09:08.523Z,62.77
2024-04-11T02:09:58.500Z,62.05
2024-04-11T02:10:48.582Z,61.87
2024-04-11T02:11:38.749Z,61.65
2024-04-11T02:12:28.762Z,62.13
2024-04-11T02:13:18.725Z,61.44
2024-04-11T02:14:08.818Z,61.32
2024-04-11T02:14:59.160Z,62.59
2024-04-11T02:15:49.153Z,61.75
2024-04-11T02:16:39.263Z,61.33
2024-04-11T02:17:29.319Z,61.35
2024-04-11T02:18:19.357Z,62.40
2024-04-11T02:19:09.511Z,61.67
2024-04-11T02:19:59.445Z,62.75
2024-04-11T02:20:49.576Z,61.90
2024-04-11T02:21:39.595Z,62.56
2024-04-11T02:22:29.647Z,62.35
2024-04-11T02:23:19.799Z,62.73
2024-04-11T02:24:10.082Z,61.73
2024-04-11T02:25:00.027Z,62.61
2024-04-11T02:25:50.077Z,62.94
2024-04-11T02:26:40.285Z,62.66
2024-04-11T02:27:30.200Z,63.06
2024-04-11T02:28:20.239Z,63.16
2024-04-11T02:29:10.333Z,62.49
2024-04-11T02:30:00.536Z,62.84
2024-04-11T02:30:50.471Z,62.03
2024-04-11T02:31:40.498Z,62.56
2024-04-11T02:32:30.658Z,62.17
2024-04-11T02:33:20.719Z,62.85
2024-04-11T02:34:10.826Z,63.05
2024-04-11T02:35:00.690Z,62.77
2024-04-11T02:35:50.770Z,62.41
2024-04-11T02:36:40.833Z,62.03
2024-04-11T02:37:30.853Z,62.82
2024-04-11T02:38:20.905Z,63.08
2024-04-11T02:39:11.041Z,62.81
2024-04-11T02:40:01.026Z,62.36
2024-04-11T02:40:51.107Z,62.54
2024-04-11T02:41:41.376Z,61.94
2024-04-11T02:42:31.391Z,61.64
2024-04-11T02:43:21.419Z,62.88
2024-04-11T02:44:11.454Z,62.48
2024-04-11T02:45:01.738Z,62.37
2024-04-11T02:45:51.568Z,62.82
2024-04-11T02:46:41.644Z,63.10
2024-04-11T02:47:32.000Z,63.01
2024-04-11T02:48:21.846Z,62.65
2024-04-11T02:49:12.025Z,62.74
2024-04-11T02:50:01.849Z,62.36
2024-04-11T02:50:51.914Z,62.90
2024-04-11T02:51:41.957Z,62.66
2024-04-11T02:52:31.999Z,63.02
2024-04-11T02:53:22.065Z,62.96
2024-04-11T02:54:12.246Z,62.82
2024-04-11T02:55:02.182Z,62.79
2024-04-11T02:55:52.182Z,61.39
2024-04-11T02:56:42.324Z,61.47
2024-04-11T02:57:32.278Z,62.35
2024-04-11T02:58:22.372Z,62.57
2024-04-11T02:59:12.418Z,62.88
2024-04-11T03:00:02.504Z,63.13
2024-04-11T03:00:52.568Z,63.03
2024-04-11T03:01:42.610Z,62.65
2024-04-11T03:02:32.682Z,61.80
2024-04-11T03:03:22.868Z,62.82
2024-04-11T03:04:13.215Z,62.75
2024-04-11T03:05:03.159Z,62.85
2024-04-11T03:05:53.162Z,62.34
2024-04-11T03:06:43.191Z,61.80
2024-04-11T03:07:33.250Z,61.98
2024-04-11T03:08:23.308Z,62.40
2024-04-11T03:09:15.842Z,63.07
2024-04-11T03:10:03.420Z,62.91
2024-04-11T03:10:53.509Z,62.41
2024-04-11T03:11:43.661Z,61.75
2024-04-11T03:12:33.684Z,61.21
2024-04-11T03:13:23.675Z,61.23
2024-04-11T03:14:13.760Z,61.07
2024-04-11T03:15:03.846Z,61.17
2024-04-11T03:15:53.880Z,61.47
2024-04-11T03:16:44.056Z,62.20
2024-04-11T03:17:34.013Z,62.14
2024-04-11T03:18:24.130Z,62.87
2024-04-11T03:19:14.038Z,62.82
2024-04-11T03:20:04.108Z,62.83
2024-04-11T03:20:54.269Z,62.01
2024-04-11T03:21:44.268Z,62.06
2024-04-11T03:22:34.304Z,62.49
2024-04-11T03:23:24.430Z,62.59
2024-04-11T03:24:14.618Z,62.12
2024-04-11T03:25:04.491Z,62.73
2024-04-11T03:25:54.808Z,62.43
2024-04-11T03:26:44.913Z,61.84
2024-04-11T03:27:34.931Z,62.51
2024-04-11T03:28:24.955Z,62.80
2024-04-11T03:29:15.033Z,62.21
2024-04-11T03:30:05.161Z,61.45
2024-04-11T03:30:55.137Z,62.35
2024-04-11T03:31:45.194Z,62.55
2024-04-11T03:32:35.667Z,61.60
2024-04-11T03:33:25.448Z,62.12
2024-04-11T03:34:15.466Z,62.01
2024-04-11T03:35:05.510Z,62.72
2024-04-11T03:35:55.460Z,62.85
2024-04-11T03:36:45.516Z,61.44
2024-04-11T03:37:35.565Z,61.84
2024-04-11T03:38:25.663Z,62.63
2024-04-11T03:39:15.889Z,61.99
2024-04-11T03:40:05.958Z,61.86
2024-04-11T03:40:56.818Z,61.58
2024-04-11T03:41:46.168Z,62.35
2024-04-11T03:42:36.224Z,62.32
2024-04-11T03:43:26.172Z,62.30
2024-04-11T03:44:16.271Z,61.62
2024-04-11T03:45:06.298Z,61.23
2024-04-11T03:45:56.533Z,60.69
2024-04-11T03:46:46.571Z,61.55
2024-04-11T03:47:36.830Z,62.15
2024-04-11T03:48:26.781Z,61.18
2024-04-11T03:49:16.758Z,62.14
2024-04-11T03:50:06.767Z,61.71
2024-04-11T03:50:56.882Z,61.40
2024-04-11T03:51:46.898Z,61.54
2024-04-11T03:52:37.111Z,61.03
2024-04-11T03:53:27.113Z,60.87
2024-04-11T03:54:17.164Z,60.74
2024-04-11T03:55:07.186Z,60.82
2024-04-11T03:55:57.331Z,61.03
2024-04-11T03:56:47.366Z,61.37
2024-04-11T03:57:37.472Z,61.63
2024-04-11T03:58:27.449Z,60.82
2024-04-11T03:59:17.509Z,60.94
2024-04-11T04:00:07.576Z,61.86
2024-04-11T04:00:57.671Z,62.21
2024-04-11T04:01:49.462Z,60.86
2024-04-11T04:02:37.941Z,61.14
2024-04-11T04:03:27.923Z,61.01
2024-04-11T04:04:17.898Z,60.82
2024-04-11T04:05:07.829Z,60.66
2024-04-11T04:05:58.084Z,61.30
2024-04-11T04:06:47.978Z,61.44
2024-04-11T04:07:38.647Z,61.27
2024-04-11T04:08:28.108Z,61.08
2024-04-11T04:09:18.206Z,61.16
2024-04-11T04:10:08.145Z,60.80
2024-04-11T04:10:58.247Z,61.52
2024-04-11T04:11:48.305Z,60.85
2024-04-11T04:12:38.433Z,60.70
2024-04-11T04:13:28.388Z,60.94
2024-04-11T04:14:18.468Z,61.11
2024-04-11T04:15:08.588Z,61.47
2024-04-11T04:15:58.633Z,60.88
2024-04-11T04:16:48.719Z,61.93
2024-04-11T04:17:38.779Z,62.26
2024-04-11T04:18:28.871Z,61.83
2024-04-11T04:19:18.804Z,61.17
2024-04-11T04:20:08.838Z,61.57
2024-04-11T04:20:59.084Z,61.24
2024-04-11T04:21:48.999Z,61.11
2024-04-11T04:22:39.026Z,62.06
2024-04-11T04:23:29.100Z,62.45
2024-04-11T04:24:19.107Z,62.53
2024-04-11T04:25:09.126Z,62.18
2024-04-11T04:25:59.167Z,61.16
2024-04-11T04:26:49.300Z,61.72
2024-04-11T04:27:39.321Z,61.17
2024-04-11T04:28:29.351Z,60.81
2024-04-11T04:29:19.434Z,61.74
2024-04-11T04:30:09.497Z,61.07
2024-04-11T04:30:59.521Z,62.23
2024-04-11T04:31:49.578Z,61.52
2024-04-11T04:32:39.746Z,60.49
2024-04-11T04:33:29.887Z,60.74
2024-04-11T04:34:20.082Z,60.64
2024-04-11T04:35:09.847Z,61.34
2024-04-11T04:36:00.373Z,61.96
2024-04-11T04:36:50.232Z,60.63
2024-04-11T04:37:40.281Z,60.85
2024-04-11T04:38:30.327Z,61.23
2024-04-11T04:39:20.356Z,61.40
2024-04-11T04:40:10.367Z,61.18
2024-04-11T04:41:00.451Z,62.29
2024-04-11T04:41:50.542Z,62.14
2024-04-11T04:42:40.566Z,62.35
2024-04-11T04:43:30.594Z,62.17
2024-04-11T04:44:20.661Z,61.61
2024-04-11T04:45:10.775Z,62.42
2024-04-11T04:46:00.744Z,62.60
2024-04-11T04:46:50.849Z,62.46
2024-04-11T04:47:40.978Z,61.24
2024-04-11T04:48:31.164Z,62.02
2024-04-11T04:49:21.308Z,62.12
2024-04-11T04:50:11.301Z,62.37
2024-04-11T04:51:01.388Z,60.80
2024-04-11T04:51:51.425Z,62.20
2024-04-11T04:52:41.440Z,61.64
2024-04-11T04:53:31.522Z,61.84
2024-04-11T04:54:21.530Z,60.86
2024-04-11T04:55:11.645Z,60.28
2024-04-11T04:56:01.684Z,61.96
2024-04-11T04:56:51.739Z,61.94
2024-04-11T04:57:41.754Z,61.09
2024-04-11T04:58:31.803Z,61.91
2024-04-11T04:59:21.926Z,61.86
2024-04-11T05:00:11.980Z,61.95
2024-04-11T05:01:02.045Z,61.20
2024-04-11T05:01:52.029Z,61.32
2024-04-11T05:02:42.181Z,61.29
2024-04-11T05:03:32.208Z,61.81
2024-04-11T05:04:22.321Z,61.19
2024-04-11T05:05:12.228Z,62.19
2024-04-11T05:06:02.459Z,62.27
2024-04-11T05:06:52.355Z,62.22
2024-04-11T05:07:42.424Z,61.66
2024-04-11T05:08:32.503Z,62.27
2024-04-11T05:09:22.530Z,61.83
2024-04-11T05:10:12.576Z,61.30
2024-04-11T05:11:02.750Z,60.18
2024-04-11T05:11:52.753Z,60.94
2024-04-11T05:12:42.755Z,60.46
2024-04-11T05:13:32.785Z,61.33
2024-04-11T05:14:22.885Z,61.62
2024-04-11T05:15:12.967Z,61.08
2024-04-11T05:16:03.060Z,62.00
2024-04-11T05:16:53.044Z,62.15
2024-04-11T05:17:43.160Z,60.92
2024-04-11T05:18:33.222Z,61.42
2024-04-11T05:19:23.160Z,61.21
2024-04-11T05:20:13.208Z,61.67
2024-04-11T05:21:03.285Z,61.55
2024-04-11T05:21:53.350Z,62.17
2024-04-11T05:22:43.496Z,62.47
2024-04-11T05:23:33.512Z,61.79
2024-04-11T05:24:23.662Z,61.56
2024-04-11T05:25:13.593Z,62.29
2024-04-11T05:26:03.690Z,61.92
2024-04-11T05:26:53.822Z,61.81
2024-04-11T05:27:43.839Z,62.27
2024-04-11T05:28:33.835Z,62.39
2024-04-11T05:29:24.039Z,62.39
2024-04-11T05:30:14.039Z,60.71
2024-04-11T05:31:04.067Z,61.24
2024-04-11T05:31:54.101Z,61.68
2024-04-11T05:32:44.317Z,60.59
2024-04-11T05:33:34.338Z,61.28
2024-04-11T05:34:24.666Z,62.11
2024-04-11T05:35:14.343Z,61.85
2024-04-11T05:36:04.706Z,60.66
2024-04-11T05:36:54.711Z,61.63
2024-04-11T05:37:44.718Z,62.02
2024-04-11T05:38:34.836Z,60.83
2024-04-11T05:39:24.901Z,62.19
2024-04-11T05:40:14.815Z,62.31
2024-04-11T05:41:04.932Z,62.18
2024-04-11T05:41:54.972Z,62.41
2024-04-11T05:42:45.089Z,61.65
2024-04-11T05:43:38.013Z,61.99
2024-04-11T05:44:25.252Z,62.50
2024-04-11T05:45:15.286Z,62.34
2024-04-11T05:46:05.271Z,61.93
2024-04-11T05:46:55.326Z,62.54
2024-04-11T05:47:45.565Z,62.56
2024-04-11T05:48:35.479Z,62.47
2024-04-11T05:49:25.539Z,62.31
2024-04-11T05:50:15.508Z,61.70
2024-04-11T05:51:05.707Z,61.98
2024-04-11T05:51:55.580Z,62.38
2024-04-11T05:52:45.667Z,62.49
2024-04-11T05:53:35.761Z,62.54
2024-04-11T05:54:25.912Z,62.19
2024-04-11T05:55:15.815Z,62.40
2024-04-11T05:56:05.956Z,62.62
2024-04-11T05:56:55.965Z,62.09
2024-04-11T05:57:46.024Z,62.02
2024-04-11T05:58:36.029Z,62.51
2024-04-11T05:59:26.199Z,62.66
2024-04-11T06:00:16.176Z,63.05
2024-04-11T06:01:06.331Z,62.82
2024-04-11T06:01:56.270Z,62.91
2024-04-11T06:02:46.361Z,62.92
2024-04-11T06:03:36.448Z,62.68
2024-04-11T06:04:26.587Z,62.41
2024-04-11T06:05:16.414Z,62.36
2024-04-11T06:06:06.590Z,62.55
2024-04-11T06:06:56.514Z,62.37
2024-04-11T06:07:46.585Z,62.44
2024-04-11T06:08:36.739Z,62.43
2024-04-11T06:09:26.733Z,61.40
2024-04-11T06:10:16.746Z,62.46
2024-04-11T06:11:06.916Z,62.61
2024-04-11T06:11:56.899Z,62.17
2024-04-11T06:12:46.930Z,62.60
2024-04-11T06:13:37.025Z,62.05
2024-04-11T06:14:27.138Z,61.75
2024-04-11T06:15:17.086Z,62.40
2024-04-11T06:16:07.253Z,62.84
2024-04-11T06:16:57.217Z,62.75
2024-04-11T06:17:47.467Z,62.51
2024-04-11T06:18:37.597Z,62.24
2024-04-11T06:19:27.422Z,62.35
2024-04-11T06:20:17.434Z,62.53
2024-04-11T06:21:07.554Z,62.79
2024-04-11T06:21:57.519Z,63.06
2024-04-11T06:22:47.926Z,62.96
2024-04-11T06:23:37.962Z,63.03
2024-04-11T06:24:28.140Z,63.21
2024-04-11T06:25:18.032Z,63.23
2024-04-11T06:26:08.069Z,63.11
2024-04-11T06:26:58.132Z,63.27
2024-04-11T06:27:48.261Z,63.33
2024-04-11T06:28:38.507Z,63.12
2024-04-11T06:29:28.589Z,62.79
2024-04-11T06:30:18.618Z,63.11
2024-04-11T06:31:08.659Z,63.08
2024-04-11T06:31:58.686Z,62.72
2024-04-11T06:32:49.034Z,62.57
2024-04-11T06:33:38.894Z,62.89
2024-04-11T06:34:28.932Z,62.75
2024-04-11T06:35:18.935Z,62.83
2024-04-11T06:36:09.089Z,62.77
2024-04-11T06:36:59.046Z,63.06
2024-04-11T06:37:49.090Z,63.13
2024-04-11T06:38:39.203Z,63.08
2024-04-11T06:39:29.208Z,63.15
2024-04-11T06:40:19.257Z,62.94
2024-04-11T06:41:09.296Z,63.11
2024-04-11T06:41:59.368Z,63.02
2024-04-11T06:42:49.403Z,63.17
2024-04-11T06:43:39.811Z,63.30
2024-04-11T06:44:29.559Z,63.17
2024-04-11T06:45:19.536Z,63.18
2024-04-11T06:46:10.270Z,63.33
2024-04-11T06:46:59.696Z,63.41
2024-04-11T06:47:50.842Z,63.36
2024-04-11T06:48:39.848Z,63.38
2024-04-11T06:49:29.890Z,63.40
2024-04-11T06:50:19.929Z,63.25
2024-04-11T06:51:10.272Z,63.32
2024-04-11T06:52:00.317Z,63.28
2024-04-11T06:52:50.389Z,63.27
2024-04-11T06:53:40.681Z,63.24
2024-04-11T06:54:30.550Z,63.40
2024-04-11T06:55:20.535Z,63.38
2024-04-11T06:56:10.607Z,63.44
2024-04-11T06:57:00.634Z,63.40
2024-04-11T06:57:50.731Z,63.43
2024-04-11T06:58:40.692Z,63.31
2024-04-11T06:59:30.799Z,63.49
2024-04-11T07:00:20.790Z,63.31
2024-04-11T07:01:11.232Z,63.24
2024-04-11T07:02:01.019Z,63.37
2024-04-11T07:02:51.138Z,63.48
2024-04-11T07:03:42.199Z,63.54
2024-04-11T07:04:31.433Z,63.46
2024-04-11T07:05:21.522Z,63.58
2024-04-11T07:06:12.052Z,63.47
2024-04-11T07:07:01.643Z,63.54
2024-04-11T07:07:51.725Z,63.48
2024-04-11T07:08:41.731Z,63.59
2024-04-11T07:09:31.781Z,63.63
2024-04-11T07:10:21.799Z,63.75
2024-04-11T07:11:11.882Z,63.68
2024-04-11T07:12:01.968Z,63.60
2024-04-11T07:12:52.075Z,63.65
2024-04-11T07:13:42.050Z,63.66
2024-04-11T07:14:32.232Z,63.71
2024-04-11T07:15:22.178Z,63.76
2024-04-11T07:16:12.264Z,63.65
2024-04-11T07:17:02.333Z,63.68
2024-04-11T07:17:52.496Z,63.69
2024-04-11T07:18:42.390Z,63.74
2024-04-11T07:19:32.470Z,63.69
2024-04-11T07:20:22.603Z,63.77
2024-04-11T07:21:12.611Z,63.62
2024-04-11T07:22:02.655Z,63.68
2024-04-11T07:22:52.792Z,63.75
2024-04-11T07:23:42.792Z,63.80
2024-04-11T07:24:32.806Z,63.68
2024-04-11T07:25:22.839Z,63.77
2024-04-11T07:26:12.956Z,63.78
2024-04-11T07:27:02.999Z,63.79
2024-04-11T07:27:53.053Z,63.87
2024-04-11T07:28:43.048Z,63.85
2024-04-11T07:29:33.189Z,63.82
2024-04-11T07:30:23.154Z,63.86
2024-04-11T07:31:14.331Z,63.85
2024-04-11T07:32:03.363Z,63.94
2024-04-11T07:32:53.659Z,63.94
2024-04-11T07:33:43.626Z,63.97
2024-04-11T07:34:33.596Z,63.91
2024-04-11T07:35:23.639Z,63.96
2024-04-11T07:36:13.645Z,63.91
2024-04-11T07:37:03.686Z,63.88
2024-04-11T07:37:53.827Z,63.90
2024-04-11T07:38:43.910Z,63.86
2024-04-11T07:39:33.940Z,63.94
2024-04-11T07:40:23.976Z,63.86
2024-04-11T07:41:14.093Z,63.86
2024-04-11T07:42:04.110Z,63.89
2024-04-11T07:42:54.167Z,63.93
2024-04-11T07:43:44.172Z,63.95
2024-04-11T07:44:34.374Z,64.01
2024-04-11T07:45:24.384Z,64.02
2024-04-11T07:46:14.539Z,63.95
2024-04-11T07:47:12.401Z,63.96
2024-04-11T07:47:58.891Z,63.96
2024-04-11T07:48:45.715Z,64.07
2024-04-11T07:49:34.824Z,64.05
2024-04-11T07:50:24.803Z,64.08
2024-04-11T07:51:14.776Z,64.04
2024-04-11T07:52:04.809Z,64.07
2024-04-11T07:52:54.862Z,64.08
2024-04-11T07:53:44.933Z,64.10
2024-04-11T07:54:41.038Z,63.93
2024-04-11T07:55:26.021Z,64.07
2024-04-11T07:56:15.154Z,64.10
2024-04-11T07:57:05.139Z,64.07
2024-04-11T07:57:55.282Z,64.09
2024-04-11T07:58:45.228Z,64.17
2024-04-11T07:59:35.354Z,64.13
2024-04-11T08:00:27.075Z,64.14
2024-04-11T08:01:15.466Z,63.95
2024-04-11T08:02:05.460Z,63.88
2024-04-11T08:02:55.642Z,64.06
2024-04-11T08:03:45.575Z,64.08
2024-04-11T08:04:35.696Z,64.08
2024-04-11T08:05:25.725Z,64.06
2024-04-11T08:06:15.927Z,64.01
2024-04-11T08:07:05.766Z,64.03
2024-04-11T08:07:55.949Z,64.07
2024-04-11T08:08:46.019Z,64.04
2024-04-11T08:09:36.041Z,64.02
2024-04-11T08:10:26.035Z,63.92
2024-04-11T08:11:16.214Z,63.92
2024-04-11T08:12:06.313Z,64.07
2024-04-11T08:12:56.393Z,64.10
2024-04-11T08:13:46.609Z,64.09
2024-04-11T08:14:36.486Z,63.87
2024-04-11T08:15:26.696Z,63.88
2024-04-11T08:16:16.614Z,64.18
2024-04-11T08:17:06.532Z,64.29
2024-04-11T08:17:56.721Z,64.20
2024-04-11T08:18:46.651Z,64.04
2024-04-11T08:19:41.513Z,63.98
2024-04-11T08:20:27.793Z,64.17
2024-04-11T08:21:16.834Z,63.73
2024-04-11T08:22:06.875Z,63.97
2024-04-11T08:22:58.085Z,64.08
2024-04-11T08:23:47.111Z,64.24
2024-04-11T08:24:37.125Z,64.16
2024-04-11T08:25:27.085Z,64.26
2024-04-11T08:26:17.176Z,64.18
2024-04-11T08:27:07.210Z,64.22
2024-04-11T08:27:57.434Z,64.18
2024-04-11T08:28:47.467Z,64.03
2024-04-11T08:29:37.610Z,64.24
2024-04-11T08:30:27.576Z,64.18
2024-04-11T08:31:17.727Z,64.14
2024-04-11T08:32:07.681Z,64.14
2024-04-11T08:32:57.875Z,64.10
2024-04-11T08:33:47.817Z,64.14
2024-04-11T08:34:37.938Z,64.07
2024-04-11T08:35:27.959Z,64.19
2024-04-11T08:36:18.064Z,63.98
2024-04-11T08:37:08.053Z,64.21
2024-04-11T08:37:58.110Z,64.02
2024-04-11T08:38:48.174Z,64.11
2024-04-11T08:39:38.265Z,63.94
2024-04-11T08:40:28.258Z,63.77
2024-04-11T08:41:18.403Z,63.97
2024-04-11T08:42:08.447Z,64.03
2024-04-11T08:42:58.566Z,64.10
2024-04-11T08:43:48.583Z,64.26
2024-04-11T08:44:38.765Z,64.25
2024-04-11T08:45:28.691Z,63.92
2024-04-11T08:46:18.759Z,64.10
2024-04-11T08:47:08.857Z,64.23
2024-04-11T08:47:59.013Z,64.13
2024-04-11T08:48:49.173Z,64.02
2024-04-11T08:49:39.116Z,64.09
2024-04-11T08:50:29.294Z,63.92
2024-04-11T08:51:19.274Z,64.15
2024-04-11T08:52:09.292Z,63.93
2024-04-11T08:52:59.353Z,63.97
2024-04-11T08:53:59.956Z,63.89
2024-04-11T08:54:40.440Z,64.12
2024-04-11T08:55:29.488Z,64.18
2024-04-11T08:56:19.648Z,64.21
2024-04-11T08:57:09.613Z,64.23
2024-04-11T08:57:59.694Z,64.01
2024-04-11T08:58:49.746Z,64.13
2024-04-11T08:59:41.199Z,64.10
2024-04-11T09:00:29.843Z,64.23
2024-04-11T09:01:20.013Z,64.20
2024-04-11T09:02:09.949Z,64.28
2024-04-11T09:03:00.164Z,64.22
2024-04-11T09:03:50.299Z,64.13
2024-04-11T09:04:40.392Z,64.17
2024-04-11T09:05:30.412Z,64.00
2024-04-11T09:06:20.558Z,64.12
2024-04-11T09:07:10.483Z,64.13
2024-04-11T09:08:00.680Z,64.14
2024-04-11T09:08:50.663Z,64.17
2024-04-11T09:09:40.731Z,64.12
2024-04-11T09:10:30.812Z,64.14
2024-04-11T09:11:23.187Z,64.25
2024-04-11T09:12:11.024Z,64.25
2024-04-11T09:13:01.023Z,64.29
2024-04-11T09:13:51.046Z,64.32
2024-04-11T09:14:41.204Z,64.18
2024-04-11T09:15:31.115Z,64.30
2024-04-11T09:16:21.476Z,64.28
2024-04-11T09:17:11.377Z,64.33
2024-04-11T09:18:01.608Z,64.25
2024-04-11T09:18:51.528Z,64.01
2024-04-11T09:19:41.656Z,64.23
2024-04-11T09:20:31.613Z,64.31
2024-04-11T09:21:21.670Z,64.23
2024-04-11T09:22:11.661Z,64.33
2024-04-11T09:23:01.861Z,64.31
2024-04-11T09:23:51.947Z,64.28
2024-04-11T09:24:41.868Z,64.36
2024-04-11T09:25:31.898Z,64.36
2024-04-11T09:26:22.041Z,64.28
2024-04-11T09:27:12.025Z,64.35
2024-04-11T09:28:02.633Z,64.19
2024-04-11T09:28:52.141Z,64.37
2024-04-11T09:29:42.341Z,64.35
2024-04-11T09:30:32.223Z,64.33
2024-04-11T09:31:22.368Z,64.31
2024-04-11T09:32:12.314Z,64.28
2024-04-11T09:33:02.490Z,64.35
2024-04-11T09:33:52.863Z,64.25
2024-04-11T09:34:44.811Z,64.28
2024-04-11T09:35:32.726Z,64.33
2024-04-11T09:36:22.803Z,64.37
2024-04-11T09:37:12.800Z,64.35
2024-04-11T09:38:02.958Z,64.33
2024-04-11T09:38:52.985Z,64.30
2024-04-11T09:39:43.208Z,64.15
2024-04-11T09:40:33.036Z,64.31
2024-04-11T09:41:24.939Z,64.30
2024-04-11T09:42:13.339Z,64.43
2024-04-11T09:43:03.292Z,64.44
2024-04-11T09:43:53.311Z,64.41
2024-04-11T09:44:43.479Z,64.33
2024-04-11T09:45:33.397Z,64.41
2024-04-11T09:46:23.506Z,64.44
2024-04-11T09:47:13.590Z,64.46
2024-04-11T09:48:03.705Z,64.40
2024-04-11T09:48:53.806Z,64.50
2024-04-11T09:49:43.792Z,64.48
2024-04-11T09:50:33.781Z,64.48
2024-04-11T09:51:23.831Z,64.51
2024-04-11T09:52:13.875Z,64.50
2024-04-11T09:53:04.197Z,64.49
2024-04-11T09:53:54.267Z,64.38
2024-04-11T09:54:44.334Z,64.45
2024-04-11T09:55:34.371Z,64.53
2024-04-11T09:56:24.395Z,64.53
2024-04-11T09:57:14.382Z,64.52
2024-04-11T09:58:04.530Z,64.52
2024-04-11T09:58:54.513Z,64.47
2024-04-11T09:59:44.718Z,64.55
2024-04-11T10:00:34.711Z,64.53
2024-04-11T10:01:24.828Z,64.40
2024-04-11T10:02:14.817Z,64.50
2024-04-11T10:03:04.924Z,64.53
2024-04-11T10:03:54.923Z,64.55
2024-04-11T10:04:45.024Z,64.54
2024-04-11T10:05:35.017Z,64.56
2024-04-11T10:06:25.178Z,64.50
2024-04-11T10:07:15.113Z,64.47
2024-04-11T10:08:05.228Z,64.50
2024-04-11T10:08:55.350Z,64.58
2024-04-11T10:09:45.265Z,64.57
2024-04-11T10:10:35.349Z,64.56
2024-04-11T10:11:25.515Z,64.52
2024-04-11T10:12:15.543Z,64.53
2024-04-11T10:13:05.836Z,64.55
2024-04-11T10:13:55.709Z,64.60
2024-04-11T10:14:45.829Z,64.57
2024-04-11T10:15:36.624Z,64.60
2024-04-11T10:16:25.858Z,64.56
2024-04-11T10:17:15.854Z,64.56
2024-04-11T10:18:07.124Z,64.56
2024-04-11T10:18:56.671Z,64.57
2024-04-11T10:19:46.384Z,64.66
2024-04-11T10:20:36.198Z,64.66
2024-04-11T10:21:33.482Z,64.61
2024-04-11T10:22:17.361Z,64.70
2024-04-11T10:23:06.353Z,64.65
2024-04-11T10:23:59.498Z,64.62
2024-04-11T10:24:46.598Z,64.69
2024-04-11T10:25:36.550Z,64.62
2024-04-11T10:26:27.075Z,64.60
2024-04-11T10:27:16.745Z,64.66
2024-04-11T10:28:06.795Z,64.64
2024-04-11T10:28:56.791Z,64.66
2024-04-11T10:29:46.935Z,64.63
2024-04-11T10:30:36.978Z,64.66
2024-04-11T10:31:27.089Z,64.63
2024-04-11T10:32:17.134Z,64.66
2024-04-11T10:33:07.494Z,64.58
2024-04-11T10:33:57.445Z,64.65
2024-04-11T10:34:47.409Z,64.62
2024-04-11T10:35:37.433Z,64.57
2024-04-11T10:36:27.540Z,64.64
2024-04-11T10:37:17.491Z,64.71
2024-04-11T10:38:07.602Z,64.69
2024-04-11T10:38:57.728Z,64.73
2024-04-11T10:39:47.731Z,64.66
2024-04-11T10:40:37.749Z,64.65
2024-04-11T10:41:27.965Z,64.61
2024-04-11T10:42:17.814Z,64.62
2024-04-11T10:43:12.088Z,64.63
2024-04-11T10:43:58.941Z,64.62
2024-04-11T10:44:48.084Z,64.70